createdAt,value
2019-04-06T00:00:57.600Z,75.00
2019-04-06T00:03:28.528Z,74.82
2019-04-06T00:05:59.660Z,74.59
2019-04-06T00:08:30.555Z,74.81
2019-04-06T00:11:01.499Z,75.20
2019-04-06T00:13:32.283Z,74.52
2019-04-06T00:16:03.218Z,74.24
2019-04-06T00:18:34.070Z,74.38
2019-04-06T00:21:05.075Z,74.50
2019-04-06T00:23:35.981Z,74.58
2019-04-06T00:26:06.939Z,74.80
2019-04-06T00:28:37.789Z,74.55
2019-04-06T00:31:17.712Z,74.95
2019-04-06T00:33:48.872Z,74.45
2019-04-06T00:36:19.728Z,74.35
2019-04-06T00:38:50.566Z,74.46
2019-04-06T00:41:21.501Z,74.51
2019-04-06T00:43:52.360Z,74.75
2019-04-06T00:46:23.308Z,74.62
2019-04-06T00:48:54.398Z,74.23
2019-04-06T00:51:25.527Z,74.03
2019-04-06T00:53:56.674Z,74.06
2019-04-06T00:56:27.597Z,73.97
2019-04-06T00:58:59.659Z,73.80
2019-04-06T01:01:31.411Z,73.90
2019-04-06T01:04:03.449Z,73.82
2019-04-06T01:06:34.713Z,73.35
2019-04-06T01:09:08.558Z,73.78
2019-04-06T01:11:39.496Z,74.06
2019-04-06T01:14:10.352Z,74.32
2019-04-06T01:16:41.266Z,74.14
2019-04-06T01:19:12.556Z,74.50
2019-04-06T01:21:43.478Z,74.28
2019-04-06T01:24:14.720Z,73.87
2019-04-06T01:26:45.577Z,73.84
2019-04-06T01:29:16.773Z,73.50
2019-04-06T01:31:47.912Z,73.35
2019-04-06T01:34:18.807Z,73.82
2019-04-06T01:36:49.801Z,74.30
2019-04-06T01:39:21.147Z,74.44
2019-04-06T01:41:52.392Z,74.62
2019-04-06T01:44:26.214Z,74.06
2019-04-06T01:46:57.123Z,74.66
2019-04-06T01:49:27.969Z,74.13
2019-04-06T01:51:59.178Z,74.57
2019-04-06T01:54:30.303Z,74.57
2019-04-06T01:57:01.543Z,74.93
2019-04-06T01:59:32.831Z,74.94
2019-04-06T02:02:18.194Z,74.73
2019-04-06T02:04:49.397Z,75.08
2019-04-06T02:07:20.384Z,75.25
2019-04-06T02:09:51.400Z,74.81
2019-04-06T02:12:22.484Z,74.84
2019-04-06T02:14:53.375Z,75.42
2019-04-06T02:17:24.585Z,75.57
2019-04-06T02:19:55.451Z,74.75
2019-04-06T02:22:26.571Z,75.02
2019-04-06T02:24:57.727Z,75.12
2019-04-06T02:27:29.359Z,75.02
2019-04-06T02:30:18.576Z,75.45
2019-04-06T02:33:07.324Z,75.50
2019-04-06T02:36:00.019Z,75.25
2019-04-06T02:38:48.767Z,75.23
2019-04-06T02:41:37.871Z,75.06
2019-04-06T02:44:09.528Z,74.91
2019-04-06T02:46:40.455Z,75.28
2019-04-06T02:49:11.552Z,75.11
2019-04-06T02:51:42.460Z,74.88
2019-04-06T02:54:13.578Z,73.81
2019-04-06T02:56:47.961Z,73.17
2019-04-06T02:59:19.293Z,73.07
2019-04-06T03:01:50.424Z,73.21
2019-04-06T03:04:21.266Z,73.07
2019-04-06T03:06:52.327Z,72.83
2019-04-06T03:09:23.627Z,72.73
2019-04-06T03:11:54.497Z,72.50
2019-04-06T03:14:25.349Z,72.34
2019-04-06T03:16:56.188Z,72.79
2019-04-06T03:19:27.258Z,72.24
2019-04-06T03:21:58.050Z,72.14
2019-04-06T03:24:29.369Z,71.88
2019-04-06T03:27:02.625Z,72.16
2019-04-06T03:29:33.081Z,72.09
2019-04-06T03:32:04.499Z,71.50
2019-04-06T03:34:35.739Z,71.58
2019-04-06T03:37:06.594Z,71.57
2019-04-06T03:39:37.521Z,71.07
2019-04-06T03:42:10.636Z,70.97
2019-04-06T03:44:40.900Z,72.23
2019-04-06T03:47:11.737Z,73.23
2019-04-06T03:49:42.962Z,73.00
2019-04-06T03:52:13.770Z,73.32
2019-04-06T03:54:44.937Z,73.70
2019-04-06T03:57:17.301Z,73.87
2019-04-06T03:59:48.640Z,74.33
2019-04-06T04:02:19.474Z,74.59
2019-04-06T04:04:50.310Z,74.07
2019-04-06T04:07:21.148Z,73.52
2019-04-06T04:09:52.009Z,74.22
2019-04-06T04:12:22.952Z,74.05
2019-04-06T04:14:53.861Z,73.70
2019-04-06T04:17:26.056Z,73.22
2019-04-06T04:19:56.895Z,73.88
2019-04-06T04:22:28.275Z,73.86
2019-04-06T04:24:59.129Z,72.79
2019-04-06T04:27:30.939Z,72.81
2019-04-06T04:30:02.276Z,73.00
2019-04-06T04:32:33.509Z,72.08
2019-04-06T04:35:04.491Z,72.46
2019-04-06T04:37:35.274Z,72.70
2019-04-06T04:40:06.285Z,72.27
2019-04-06T04:42:38.410Z,71.55
2019-04-06T04:45:09.380Z,71.47
2019-04-06T04:47:40.326Z,71.44
2019-04-06T04:50:11.423Z,71.63
2019-04-06T04:52:42.506Z,71.44
2019-04-06T04:55:13.637Z,71.42
2019-04-06T04:57:45.668Z,72.00
2019-04-06T05:00:17.920Z,71.38
2019-04-06T05:02:48.979Z,72.15
2019-04-06T05:05:20.061Z,72.26
2019-04-06T05:07:51.481Z,72.51
2019-04-06T05:10:22.560Z,72.67
2019-04-06T05:12:53.574Z,72.50
2019-04-06T05:15:58.995Z,73.18
2019-04-06T05:18:29.856Z,73.79
2019-04-06T05:21:00.695Z,74.24
2019-04-06T05:23:31.979Z,73.93
2019-04-06T05:26:02.801Z,74.27
2019-04-06T05:28:33.640Z,74.54
2019-04-06T05:31:04.615Z,73.56
2019-04-06T05:33:36.147Z,73.64
2019-04-06T05:36:07.267Z,74.35
2019-04-06T05:38:38.992Z,73.67
2019-04-06T05:41:09.806Z,73.06
2019-04-06T05:43:40.824Z,73.18
2019-04-06T05:46:11.831Z,73.41
2019-04-06T05:48:43.812Z,73.35
2019-04-06T05:51:14.890Z,73.68
2019-04-06T05:53:45.730Z,73.65
2019-04-06T05:56:16.544Z,73.18
2019-04-06T05:58:47.934Z,73.63
2019-04-06T06:01:19.466Z,73.76
2019-04-06T06:03:50.802Z,74.15
2019-04-06T06:06:21.855Z,75.25
2019-04-06T06:08:52.667Z,74.79
2019-04-06T06:11:23.976Z,74.56
2019-04-06T06:13:55.034Z,74.64
2019-04-06T06:16:27.166Z,75.35
2019-04-06T06:18:58.842Z,75.71
2019-04-06T06:21:30.069Z,75.40
2019-04-06T06:24:01.292Z,74.87
2019-04-06T06:26:32.192Z,74.32
2019-04-06T06:29:03.279Z,73.75
2019-04-06T06:31:34.299Z,73.34
2019-04-06T06:34:09.370Z,73.09
2019-04-06T06:36:40.617Z,72.79
2019-04-06T06:39:11.457Z,73.61
2019-04-06T06:41:42.549Z,73.84
2019-04-06T06:44:13.741Z,73.11
2019-04-06T06:46:44.618Z,73.04
2019-04-06T06:49:15.493Z,71.99
2019-04-06T06:51:46.400Z,72.43
2019-04-06T06:54:17.745Z,72.93
2019-04-06T06:56:48.557Z,72.67
2019-04-06T06:59:20.190Z,72.61
2019-04-06T07:01:51.005Z,72.71
2019-04-06T07:04:21.932Z,72.82
2019-04-06T07:06:53.004Z,72.24
2019-04-06T07:09:23.831Z,72.24
2019-04-06T07:11:54.873Z,72.22
2019-04-06T07:14:25.761Z,71.11
2019-04-06T07:16:56.608Z,70.62
2019-04-06T07:19:27.444Z,69.71
2019-04-06T07:21:58.662Z,69.32
2019-04-06T07:24:29.539Z,68.92
2019-04-06T07:27:00.834Z,68.08
2019-04-06T07:29:31.925Z,68.15
2019-04-06T07:32:03.058Z,68.05
2019-04-06T07:34:34.386Z,68.70
2019-04-06T07:37:05.214Z,67.45
2019-04-06T07:39:36.069Z,68.02
2019-04-06T07:42:06.910Z,66.99
2019-04-06T07:44:38.031Z,66.96
2019-04-06T07:47:09.210Z,68.10
2019-04-06T07:49:40.382Z,66.70
2019-04-06T07:52:11.473Z,66.83
2019-04-06T07:54:42.492Z,65.23
2019-04-06T07:57:13.733Z,65.55
2019-04-06T07:59:44.794Z,65.09
2019-04-06T08:02:15.766Z,64.33
2019-04-06T08:04:46.687Z,65.40
2019-04-06T08:07:17.649Z,66.05
2019-04-06T08:09:48.809Z,65.95
2019-04-06T08:12:20.014Z,64.95
2019-04-06T08:14:51.853Z,63.93
2019-04-06T08:17:22.783Z,63.66
2019-04-06T08:19:53.686Z,62.76
2019-04-06T08:22:24.609Z,62.49
2019-04-06T08:24:55.757Z,64.10
2019-04-06T08:27:26.687Z,63.56
2019-04-06T08:29:58.905Z,65.17
2019-04-06T08:32:30.350Z,63.43
2019-04-06T08:35:01.306Z,63.92
2019-04-06T08:37:32.192Z,63.11
2019-04-06T08:40:05.319Z,63.26
2019-04-06T08:42:36.271Z,63.79
2019-04-06T08:45:07.437Z,63.33
2019-04-06T08:47:39.409Z,65.18
2019-04-06T08:50:10.438Z,66.02
2019-04-06T08:52:41.586Z,65.92
2019-04-06T08:55:12.653Z,64.38
2019-04-06T08:57:43.664Z,62.74
2019-04-06T09:00:14.993Z,63.27
2019-04-06T09:02:46.383Z,61.66
2019-04-06T09:05:17.422Z,62.81
2019-04-06T09:07:48.237Z,62.20
2019-04-06T09:10:19.062Z,60.17
2019-04-06T09:12:50.121Z,61.63
2019-04-06T09:15:20.986Z,62.18
2019-04-06T09:17:53.608Z,60.80
2019-04-06T09:20:24.476Z,60.06
2019-04-06T09:22:56.297Z,59.46
2019-04-06T09:25:27.547Z,58.93
2019-04-06T09:27:59.412Z,59.25
2019-04-06T09:30:30.527Z,57.95
2019-04-06T09:33:01.433Z,59.63
2019-04-06T09:35:32.553Z,59.35
2019-04-06T09:38:04.136Z,60.89
2019-04-06T09:40:34.906Z,60.65
2019-04-06T09:43:05.818Z,60.82
2019-04-06T09:45:49.291Z,59.38
2019-04-06T09:48:30.659Z,58.41
2019-04-06T09:51:17.634Z,57.34
2019-04-06T09:54:08.529Z,56.78
2019-04-06T09:57:04.658Z,57.76
2019-04-06T09:59:51.071Z,56.65
2019-04-06T10:02:28.125Z,56.83
2019-04-06T10:05:08.943Z,56.15
2019-04-06T10:07:55.460Z,54.76
2019-04-06T10:10:35.262Z,53.79
2019-04-06T10:13:24.737Z,54.73
2019-04-06T10:16:02.983Z,54.03
2019-04-06T10:19:02.112Z,53.41
2019-04-06T10:21:58.846Z,53.19
2019-04-06T10:24:47.903Z,53.53
2019-04-06T10:27:27.892Z,53.23
2019-04-06T10:30:11.552Z,53.61
2019-04-06T10:32:48.400Z,53.29
2019-04-06T10:35:34.351Z,51.88
2019-04-06T10:38:23.906Z,52.20
2019-04-06T10:41:26.194Z,51.99
2019-04-06T10:44:09.879Z,51.41
2019-04-06T10:46:47.618Z,51.63
2019-04-06T10:49:40.035Z,52.24
2019-04-06T10:52:33.320Z,50.32
2019-04-06T10:55:17.555Z,50.12
2019-04-06T10:57:56.476Z,50.46
2019-04-06T11:00:55.363Z,50.26
2019-04-06T11:03:31.956Z,49.33
2019-04-06T11:06:20.869Z,50.56
2019-04-06T11:09:13.916Z,51.50
2019-04-06T11:12:02.676Z,50.38
2019-04-06T11:15:05.015Z,49.25
2019-04-06T11:17:54.017Z,49.11
2019-04-06T11:20:48.385Z,48.36
2019-04-06T11:23:35.557Z,49.84
2019-04-06T11:26:26.700Z,49.75
2019-04-06T11:29:17.030Z,49.04
2019-04-06T11:32:09.946Z,48.69
2019-04-06T11:34:52.070Z,48.23
2019-04-06T11:37:45.248Z,49.11
2019-04-06T11:40:42.189Z,47.02
2019-04-06T11:43:30.787Z,47.91
2019-04-06T11:46:10.928Z,46.95
2019-04-06T11:48:52.440Z,48.28
2019-04-06T11:51:41.345Z,48.23
2019-04-06T11:54:29.898Z,45.85
2019-04-06T11:57:08.881Z,45.64
2019-04-06T12:00:02.542Z,45.77
2019-04-06T12:02:48.728Z,45.46
2019-04-06T12:05:38.907Z,46.24
2019-04-06T12:08:27.888Z,44.34
2019-04-06T12:11:09.283Z,46.84
2019-04-06T12:13:51.549Z,46.04
2019-04-06T12:16:32.197Z,45.83
2019-04-06T12:19:17.323Z,45.29
2019-04-06T12:22:22.538Z,47.25
2019-04-06T12:25:15.814Z,47.26
2019-04-06T12:28:08.187Z,45.95
2019-04-06T12:30:49.216Z,44.67
2019-04-06T12:33:38.929Z,43.23
2019-04-06T12:36:17.344Z,43.25
2019-04-06T12:39:14.158Z,43.77
2019-04-06T12:42:02.923Z,42.97
2019-04-06T12:44:44.708Z,44.10
2019-04-06T12:47:34.256Z,43.35
2019-04-06T12:50:28.863Z,42.15
2019-04-06T12:53:12.639Z,43.41
2019-04-06T12:56:10.614Z,42.60
2019-04-06T12:58:59.659Z,41.85
2019-04-06T13:01:37.048Z,42.69
2019-04-06T13:04:20.056Z,42.67
2019-04-06T13:07:13.067Z,41.30
2019-04-06T13:10:11.395Z,41.43
2019-04-06T13:13:03.453Z,41.10
2019-04-06T13:15:53.845Z,39.87
2019-04-06T13:18:34.532Z,38.76
2019-04-06T13:21:19.553Z,39.38
2019-04-06T13:23:58.442Z,39.28
2019-04-06T13:26:51.103Z,39.08
2019-04-06T13:29:29.154Z,38.40
2019-04-06T13:32:18.119Z,38.22
2019-04-06T13:35:11.603Z,37.89
2019-04-06T13:37:54.736Z,37.84
2019-04-06T13:40:43.741Z,38.89
2019-04-06T13:43:36.377Z,38.05
2019-04-06T13:46:24.866Z,38.06
2019-04-06T13:49:06.845Z,36.66
2019-04-06T13:51:47.032Z,37.33
2019-04-06T13:54:35.478Z,37.77
2019-04-06T13:57:34.698Z,37.25
2019-04-06T14:00:34.799Z,38.28
2019-04-06T14:03:24.713Z,37.17
2019-04-06T14:06:14.194Z,37.72
2019-04-06T14:09:00.698Z,38.03
2019-04-06T14:11:52.417Z,37.44
2019-04-06T14:14:42.151Z,37.24
2019-04-06T14:17:27.216Z,39.01
2019-04-06T14:20:19.334Z,38.86
2019-04-06T14:23:09.239Z,37.30
2019-04-06T14:26:17.667Z,36.43
2019-04-06T14:28:58.590Z,34.63
2019-04-06T14:31:42.030Z,33.64
2019-04-06T14:34:45.864Z,34.14
2019-04-06T14:37:23.197Z,33.99
2019-04-06T14:40:12.926Z,33.62
2019-04-06T14:42:55.492Z,34.60
2019-04-06T14:45:34.933Z,34.32
2019-04-06T14:48:27.960Z,33.94
2019-04-06T14:51:12.691Z,34.19
2019-04-06T14:53:48.204Z,35.11
2019-04-06T14:56:24.387Z,35.85
2019-04-06T14:59:13.501Z,36.70
2019-04-06T15:02:10.313Z,37.14
2019-04-06T15:05:06.775Z,36.72
2019-04-06T15:07:57.092Z,36.88
2019-04-06T15:10:54.563Z,37.67
2019-04-06T15:13:54.198Z,38.00
2019-04-06T15:16:47.094Z,37.63
2019-04-06T15:19:37.986Z,38.02
2019-04-06T15:22:19.794Z,37.94
2019-04-06T15:25:03.803Z,38.10
2019-04-06T15:27:49.902Z,38.77
2019-04-06T15:30:51.898Z,38.88
2019-04-06T15:33:40.656Z,39.39
2019-04-06T15:36:33.979Z,38.77
2019-04-06T15:39:16.976Z,38.81
2019-04-06T15:41:57.396Z,38.76
2019-04-06T15:44:50.395Z,39.11
2019-04-06T15:47:40.254Z,39.39
2019-04-06T15:50:22.301Z,38.89
2019-04-06T15:53:27.784Z,36.66
2019-04-06T15:56:29.953Z,33.95
2019-04-06T15:59:20.250Z,34.47
2019-04-06T16:02:12.195Z,34.83
2019-04-06T16:04:52.272Z,34.98
2019-04-06T16:07:33.608Z,35.17
2019-04-06T16:10:12.699Z,35.92
2019-04-06T16:12:53.012Z,35.50
2019-04-06T16:15:40.735Z,35.00
2019-04-06T16:18:35.909Z,35.40
2019-04-06T16:21:31.312Z,35.55
2019-04-06T16:24:21.869Z,35.56
2019-04-06T16:27:01.254Z,35.67
2019-04-06T16:29:54.005Z,35.88
2019-04-06T16:32:34.267Z,36.64
2019-04-06T16:35:23.536Z,36.85
2019-04-06T16:38:12.490Z,38.08
2019-04-06T16:41:11.451Z,37.49
2019-04-06T16:43:51.273Z,37.71
2019-04-06T16:46:41.428Z,37.82
2019-04-06T16:49:23.362Z,37.79
2019-04-06T16:52:22.086Z,38.24
2019-04-06T16:55:09.341Z,38.73
2019-04-06T16:57:59.793Z,38.58
2019-04-06T17:00:37.674Z,38.59
2019-04-06T17:03:14.290Z,38.49
2019-04-06T17:05:59.931Z,38.97
2019-04-06T17:08:41.264Z,38.98
2019-04-06T17:11:40.425Z,38.86
2019-04-06T17:14:23.017Z,39.69
2019-04-06T17:17:19.760Z,39.11
2019-04-06T17:20:00.825Z,39.36
2019-04-06T17:22:45.261Z,39.85
2019-04-06T17:25:25.636Z,40.13
2019-04-06T17:28:18.330Z,39.95
2019-04-06T17:31:23.406Z,39.85
2019-04-06T17:34:09.836Z,40.28
2019-04-06T17:36:48.194Z,40.76
2019-04-06T17:39:28.793Z,40.76
2019-04-06T17:42:26.078Z,41.23
2019-04-06T17:45:22.060Z,41.42
2019-04-06T17:48:18.457Z,41.90
2019-04-06T17:51:11.419Z,42.54
2019-04-06T17:54:00.610Z,42.44
2019-04-06T17:56:49.925Z,42.49
2019-04-06T17:59:41.491Z,42.58
2019-04-06T18:02:24.545Z,43.24
2019-04-06T18:05:08.119Z,43.00
2019-04-06T18:08:07.167Z,43.35
2019-04-06T18:10:57.094Z,43.35
2019-04-06T18:13:56.551Z,43.63
2019-04-06T18:16:35.614Z,43.18
2019-04-06T18:19:10.217Z,43.11
2019-04-06T18:21:41.266Z,43.16
2019-04-06T18:24:12.099Z,42.89
2019-04-06T18:26:43.266Z,43.42
2019-04-06T18:29:14.591Z,42.96
2019-04-06T18:31:51.508Z,43.22
2019-04-06T18:34:22.913Z,42.80
2019-04-06T18:37:07.013Z,43.13
2019-04-06T18:39:38.226Z,43.09
2019-04-06T18:42:09.625Z,42.98
2019-04-06T18:44:41.103Z,43.69
2019-04-06T18:47:12.094Z,44.04
2019-04-06T18:49:44.278Z,43.87
2019-04-06T18:52:16.775Z,43.63
2019-04-06T18:54:48.699Z,43.99
2019-04-06T18:57:20.943Z,43.84
2019-04-06T18:59:51.897Z,43.79
2019-04-06T19:02:23.866Z,44.31
2019-04-06T19:04:55.247Z,44.06
2019-04-06T19:07:26.331Z,44.13
2019-04-06T19:09:57.613Z,44.31
2019-04-06T19:12:29.212Z,44.39
2019-04-06T19:15:00.245Z,44.46
2019-04-06T19:17:31.991Z,44.53
2019-04-06T19:20:05.663Z,44.61
2019-04-06T19:22:36.660Z,43.98
2019-04-06T19:25:08.072Z,44.18
2019-04-06T19:27:40.646Z,44.29
2019-04-06T19:30:12.845Z,44.03
2019-04-06T19:32:43.810Z,44.26
2019-04-06T19:35:14.792Z,44.72
2019-04-06T19:37:45.661Z,44.70
2019-04-06T19:40:16.717Z,44.80
2019-04-06T19:42:47.573Z,45.07
2019-04-06T19:45:19.655Z,45.35
2019-04-06T19:47:50.455Z,45.45
2019-04-06T19:50:22.171Z,45.49
2019-04-06T19:52:53.052Z,45.33
2019-04-06T19:55:24.537Z,45.59
2019-04-06T19:57:55.336Z,45.74
2019-04-06T20:00:27.197Z,46.06
2019-04-06T20:02:58.013Z,46.08
2019-04-06T20:05:31.179Z,46.00
2019-04-06T20:08:02.305Z,46.35
2019-04-06T20:10:36.337Z,46.10
2019-04-06T20:13:07.535Z,46.50
2019-04-06T20:15:38.835Z,46.15
2019-04-06T20:18:12.388Z,46.24
2019-04-06T20:20:43.194Z,46.23
2019-04-06T20:23:14.057Z,46.39
2019-04-06T20:25:45.298Z,46.41
2019-04-06T20:28:16.282Z,46.54
2019-04-06T20:30:47.739Z,46.27
2019-04-06T20:33:20.528Z,46.61
2019-04-06T20:35:52.116Z,46.77
2019-04-06T20:38:23.513Z,46.84
2019-04-06T20:40:54.389Z,46.92
2019-04-06T20:43:25.802Z,47.06
2019-04-06T20:45:58.011Z,47.00
2019-04-06T20:48:29.390Z,47.46
2019-04-06T20:51:00.423Z,47.11
2019-04-06T20:53:31.970Z,47.02
2019-04-06T20:56:03.440Z,47.37
2019-04-06T20:58:34.714Z,47.34
2019-04-06T21:01:06.832Z,47.27
2019-04-06T21:03:37.921Z,46.83
2019-04-06T21:06:08.937Z,46.42
2019-04-06T21:08:40.172Z,46.63
2019-04-06T21:11:12.857Z,46.68
2019-04-06T21:13:44.269Z,47.00
2019-04-06T21:16:15.309Z,46.23
2019-04-06T21:18:46.963Z,46.49
2019-04-06T21:21:19.416Z,46.52
2019-04-06T21:23:50.389Z,46.39
2019-04-06T21:26:21.578Z,46.42
2019-04-06T21:28:53.073Z,46.53
2019-04-06T21:31:24.476Z,46.48
2019-04-06T21:33:55.893Z,46.86
2019-04-06T21:36:27.265Z,46.60
2019-04-06T21:38:58.695Z,46.93
2019-04-06T21:41:35.367Z,46.80
2019-04-06T21:44:07.551Z,47.02
2019-04-06T21:46:40.360Z,47.09
2019-04-06T21:49:11.535Z,46.64
2019-04-06T21:51:42.630Z,46.84
2019-04-06T21:54:14.985Z,46.62
2019-04-06T21:56:45.926Z,46.88
2019-04-06T21:59:17.561Z,46.89
2019-04-06T22:01:50.249Z,47.22
2019-04-06T22:04:25.983Z,47.11
2019-04-06T22:06:54.030Z,47.33
2019-04-06T22:09:25.441Z,47.56
2019-04-06T22:11:56.842Z,47.70
2019-04-06T22:14:29.292Z,47.55
2019-04-06T22:17:00.404Z,47.52
2019-04-06T22:19:31.486Z,48.05
2019-04-06T22:22:03.567Z,47.58
2019-04-06T22:24:34.994Z,48.08
2019-04-06T22:27:06.414Z,48.07
2019-04-06T22:29:38.512Z,47.84
2019-04-06T22:32:09.654Z,47.16
2019-04-06T22:34:41.741Z,47.37
2019-04-06T22:37:13.886Z,47.37
2019-04-06T22:39:45.371Z,46.88
2019-04-06T22:42:16.622Z,47.52
2019-04-06T22:44:47.700Z,47.59
2019-04-06T22:47:18.943Z,47.65
2019-04-06T22:49:50.175Z,47.95
2019-04-06T22:52:21.153Z,47.69
2019-04-06T22:54:52.462Z,47.71
2019-04-06T22:57:23.949Z,47.94
2019-04-06T22:59:56.379Z,47.16
2019-04-06T23:02:28.925Z,47.26
2019-04-06T23:05:06.471Z,46.98
2019-04-06T23:07:37.529Z,47.27
2019-04-06T23:10:09.088Z,47.30
2019-04-06T23:12:40.405Z,47.35
2019-04-06T23:15:11.595Z,47.22
2019-04-06T23:17:42.418Z,47.43
2019-04-06T23:20:13.962Z,47.97
2019-04-06T23:22:45.552Z,48.44
2019-04-06T23:25:16.957Z,48.10
2019-04-06T23:27:48.608Z,48.19
2019-04-06T23:30:19.886Z,48.45
2019-04-06T23:32:52.241Z,49.42
2019-04-06T23:35:23.568Z,49.76
2019-04-06T23:37:54.949Z,49.79
2019-04-06T23:40:25.998Z,50.51
2019-04-06T23:42:56.853Z,50.42
2019-04-06T23:45:27.702Z,50.46
2019-04-06T23:47:59.403Z,51.01
2019-04-06T23:50:30.325Z,50.40
2019-04-06T23:53:01.423Z,51.21
2019-04-06T23:55:32.745Z,51.48
2019-04-06T23:58:03.874Z,51.99
